sensor_id;sensor_type;location;lat;lon;timestamp;pressure;altitude;pressure_sealevel;temperature
75273;BMP280;63869;52.344;16.928;2023-06-22T00:01:47;101033.75;;;21.07
75273;BMP280;63869;52.344;16.928;2023-06-22T00:04:13;101032.97;;;21.01
75273;BMP280;63869;52.344;16.928;2023-06-22T00:06:38;101024.25;;;20.97
75273;BMP280;63869;52.344;16.928;2023-06-22T00:09:04;101037.09;;;20.96
75273;BMP280;63869;52.344;16.928;2023-06-22T00:11:29;101032.78;;;20.90
75273;BMP280;63869;52.344;16.928;2023-06-22T00:13:56;101039.44;;;20.89
75273;BMP280;63869;52.344;16.928;2023-06-22T00:16:22;101043.13;;;20.86
75273;BMP280;63869;52.344;16.928;2023-06-22T00:18:47;101040.47;;;20.77
75273;BMP280;63869;52.344;16.928;2023-06-22T00:21:14;101046.56;;;20.72
75273;BMP280;63869;52.344;16.928;2023-06-22T00:23:39;101048.75;;;20.68
75273;BMP280;63869;52.344;16.928;2023-06-22T00:26:04;101059.88;;;20.70
75273;BMP280;63869;52.344;16.928;2023-06-22T00:28:30;101065.31;;;20.70
75273;BMP280;63869;52.344;16.928;2023-06-22T00:30:55;101065.31;;;20.70
75273;BMP280;63869;52.344;16.928;2023-06-22T00:33:20;101061.38;;;20.71
75273;BMP280;63869;52.344;16.928;2023-06-22T00:35:46;101063.53;;;20.67
75273;BMP280;63869;52.344;16.928;2023-06-22T00:38:11;101067.00;;;20.67
75273;BMP280;63869;52.344;16.928;2023-06-22T00:40:36;101069.28;;;20.69
75273;BMP280;63869;52.344;16.928;2023-06-22T00:43:03;101070.94;;;20.66
75273;BMP280;63869;52.344;16.928;2023-06-22T00:45:29;101062.31;;;20.53
75273;BMP280;63869;52.344;16.928;2023-06-22T00:47:56;101069.19;;;20.48
75273;BMP280;63869;52.344;16.928;2023-06-22T00:50:24;101060.34;;;20.39
75273;BMP280;63869;52.344;16.928;2023-06-22T00:52:55;101069.59;;;20.32
75273;BMP280;63869;52.344;16.928;2023-06-22T00:55:22;101067.78;;;20.29
75273;BMP280;63869;52.344;16.928;2023-06-22T00:57:48;101075.78;;;20.18
75273;BMP280;63869;52.344;16.928;2023-06-22T01:00:17;101072.75;;;20.16
75273;BMP280;63869;52.344;16.928;2023-06-22T01:02:45;101080.31;;;20.12
75273;BMP280;63869;52.344;16.928;2023-06-22T01:05:12;101080.69;;;20.05
75273;BMP280;63869;52.344;16.928;2023-06-22T01:10:51;101088.72;;;19.99
75273;BMP280;63869;52.344;16.928;2023-06-22T01:15:57;101073.03;;;19.94
75273;BMP280;63869;52.344;16.928;2023-06-22T01:18:26;101080.91;;;19.92
75273;BMP280;63869;52.344;16.928;2023-06-22T01:20:54;101073.53;;;19.93
75273;BMP280;63869;52.344;16.928;2023-06-22T01:23:35;101074.09;;;19.97
75273;BMP280;63869;52.344;16.928;2023-06-22T01:26:06;101074.34;;;19.99
75273;BMP280;63869;52.344;16.928;2023-06-22T01:28:45;101068.66;;;19.97
75273;BMP280;63869;52.344;16.928;2023-06-22T01:31:24;101072.59;;;19.96
75273;BMP280;63869;52.344;16.928;2023-06-22T01:33:55;101074.53;;;19.95
75273;BMP280;63869;52.344;16.928;2023-06-22T01:36:23;101066.13;;;19.93
75273;BMP280;63869;52.344;16.928;2023-06-22T01:38:49;101080.72;;;19.96
75273;BMP280;63869;52.344;16.928;2023-06-22T01:41:20;101086.31;;;20.01
75273;BMP280;63869;52.344;16.928;2023-06-22T01:43:46;101088.81;;;20.05
75273;BMP280;63869;52.344;16.928;2023-06-22T01:46:13;101099.41;;;20.03
75273;BMP280;63869;52.344;16.928;2023-06-22T01:48:40;101117.94;;;20.04
75273;BMP280;63869;52.344;16.928;2023-06-22T01:51:06;101108.03;;;20.01
75273;BMP280;63869;52.344;16.928;2023-06-22T01:53:31;101111.50;;;20.02
75273;BMP280;63869;52.344;16.928;2023-06-22T01:55:57;101117.38;;;20.00
75273;BMP280;63869;52.344;16.928;2023-06-22T01:58:27;101108.06;;;19.92
75273;BMP280;63869;52.344;16.928;2023-06-22T02:01:12;101104.72;;;19.97
75273;BMP280;63869;52.344;16.928;2023-06-22T02:03:46;101102.91;;;19.94
75273;BMP280;63869;52.344;16.928;2023-06-22T02:06:21;101102.16;;;19.94
75273;BMP280;63869;52.344;16.928;2023-06-22T02:08:53;101111.53;;;19.93
75273;BMP280;63869;52.344;16.928;2023-06-22T02:11:20;101110.03;;;19.92
75273;BMP280;63869;52.344;16.928;2023-06-22T02:13:46;101111.22;;;19.91
75273;BMP280;63869;52.344;16.928;2023-06-22T02:16:13;101116.66;;;19.91
75273;BMP280;63869;52.344;16.928;2023-06-22T02:18:38;101107.00;;;19.90
75273;BMP280;63869;52.344;16.928;2023-06-22T02:21:05;101107.50;;;19.88
75273;BMP280;63869;52.344;16.928;2023-06-22T02:23:31;101121.53;;;19.87
75273;BMP280;63869;52.344;16.928;2023-06-22T02:25:58;101121.97;;;19.85
75273;BMP280;63869;52.344;16.928;2023-06-22T02:28:23;101127.88;;;19.84
75273;BMP280;63869;52.344;16.928;2023-06-22T02:30:48;101125.78;;;19.78
75273;BMP280;63869;52.344;16.928;2023-06-22T02:33:14;101136.44;;;19.82
75273;BMP280;63869;52.344;16.928;2023-06-22T02:35:39;101139.97;;;19.73
75273;BMP280;63869;52.344;16.928;2023-06-22T02:38:04;101136.25;;;19.71
75273;BMP280;63869;52.344;16.928;2023-06-22T02:40:30;101143.16;;;19.72
75273;BMP280;63869;52.344;16.928;2023-06-22T02:42:56;101141.38;;;19.69
75273;BMP280;63869;52.344;16.928;2023-06-22T02:45:23;101141.22;;;19.63
75273;BMP280;63869;52.344;16.928;2023-06-22T02:47:48;101146.50;;;19.67
75273;BMP280;63869;52.344;16.928;2023-06-22T02:50:14;101146.19;;;19.65
75273;BMP280;63869;52.344;16.928;2023-06-22T02:52:39;101151.63;;;19.65
75273;BMP280;63869;52.344;16.928;2023-06-22T02:55:05;101149.34;;;19.63
75273;BMP280;63869;52.344;16.928;2023-06-22T02:57:32;101155.53;;;19.64
75273;BMP280;63869;52.344;16.928;2023-06-22T02:59:57;101157.50;;;19.63
75273;BMP280;63869;52.344;16.928;2023-06-22T03:02:23;101144.59;;;19.58
75273;BMP280;63869;52.344;16.928;2023-06-22T03:04:48;101145.47;;;19.55
75273;BMP280;63869;52.344;16.928;2023-06-22T03:07:14;101143.81;;;19.58
75273;BMP280;63869;52.344;16.928;2023-06-22T03:09:40;101148.31;;;19.61
75273;BMP280;63869;52.344;16.928;2023-06-22T03:12:07;101147.56;;;19.60
75273;BMP280;63869;52.344;16.928;2023-06-22T03:14:33;101156.00;;;19.62
75273;BMP280;63869;52.344;16.928;2023-06-22T03:16:58;101150.59;;;19.62
75273;BMP280;63869;52.344;16.928;2023-06-22T03:19:28;101156.13;;;19.68
75273;BMP280;63869;52.344;16.928;2023-06-22T03:21:55;101161.88;;;19.70
75273;BMP280;63869;52.344;16.928;2023-06-22T03:24:20;101151.63;;;19.65
75273;BMP280;63869;52.344;16.928;2023-06-22T03:26:45;101160.66;;;19.71
75273;BMP280;63869;52.344;16.928;2023-06-22T03:29:12;101147.38;;;19.73
75273;BMP280;63869;52.344;16.928;2023-06-22T03:31:37;101156.09;;;19.77
75273;BMP280;63869;52.344;16.928;2023-06-22T03:34:02;101158.63;;;19.80
75273;BMP280;63869;52.344;16.928;2023-06-22T03:36:28;101166.16;;;19.86
75273;BMP280;63869;52.344;16.928;2023-06-22T03:38:53;101161.63;;;19.83
75273;BMP280;63869;52.344;16.928;2023-06-22T03:41:18;101164.78;;;19.90
75273;BMP280;63869;52.344;16.928;2023-06-22T03:43:44;101166.09;;;19.95
75273;BMP280;63869;52.344;16.928;2023-06-22T03:46:09;101164.59;;;19.94
75273;BMP280;63869;52.344;16.928;2023-06-22T03:48:35;101162.19;;;19.96
75273;BMP280;63869;52.344;16.928;2023-06-22T03:51:02;101172.88;;;19.99
75273;BMP280;63869;52.344;16.928;2023-06-22T03:53:28;101169.81;;;20.06
75273;BMP280;63869;52.344;16.928;2023-06-22T03:55:53;101155.78;;;20.08
75273;BMP280;63869;52.344;16.928;2023-06-22T03:58:19;101161.50;;;20.10
75273;BMP280;63869;52.344;16.928;2023-06-22T04:00:50;101172.94;;;20.14
75273;BMP280;63869;52.344;16.928;2023-06-22T04:03:16;101173.53;;;20.18
75273;BMP280;63869;52.344;16.928;2023-06-22T04:05:43;101176.53;;;20.20
75273;BMP280;63869;52.344;16.928;2023-06-22T04:08:09;101184.03;;;20.25
75273;BMP280;63869;52.344;16.928;2023-06-22T04:10:34;101188.38;;;20.32
75273;BMP280;63869;52.344;16.928;2023-06-22T04:13:00;101188.50;;;20.37
75273;BMP280;63869;52.344;16.928;2023-06-22T04:15:25;101198.72;;;20.42
75273;BMP280;63869;52.344;16.928;2023-06-22T04:17:51;101183.81;;;20.38
75273;BMP280;63869;52.344;16.928;2023-06-22T04:20:16;101199.63;;;20.48
75273;BMP280;63869;52.344;16.928;2023-06-22T04:22:43;101198.47;;;20.55
75273;BMP280;63869;52.344;16.928;2023-06-22T04:25:08;101188.63;;;20.57
75273;BMP280;63869;52.344;16.928;2023-06-22T04:27:34;101188.56;;;20.67
75273;BMP280;63869;52.344;16.928;2023-06-22T04:30:06;101192.91;;;20.73
75273;BMP280;63869;52.344;16.928;2023-06-22T04:32:32;101203.88;;;20.79
75273;BMP280;63869;52.344;16.928;2023-06-22T04:34:57;101192.66;;;20.86
75273;BMP280;63869;52.344;16.928;2023-06-22T04:37:23;101196.78;;;20.96
75273;BMP280;63869;52.344;16.928;2023-06-22T04:39:49;101209.53;;;21.04
75273;BMP280;63869;52.344;16.928;2023-06-22T04:42:15;101208.44;;;21.11
75273;BMP280;63869;52.344;16.928;2023-06-22T04:44:40;101191.19;;;21.14
75273;BMP280;63869;52.344;16.928;2023-06-22T04:47:07;101203.75;;;21.12
75273;BMP280;63869;52.344;16.928;2023-06-22T04:49:35;101194.66;;;21.15
75273;BMP280;63869;52.344;16.928;2023-06-22T04:52:04;101198.50;;;21.23
75273;BMP280;63869;52.344;16.928;2023-06-22T04:54:30;101207.50;;;21.29
75273;BMP280;63869;52.344;16.928;2023-06-22T04:57:02;101198.19;;;21.35
75273;BMP280;63869;52.344;16.928;2023-06-22T04:59:29;101198.84;;;21.45
75273;BMP280;63869;52.344;16.928;2023-06-22T05:01:59;101200.41;;;21.52
75273;BMP280;63869;52.344;16.928;2023-06-22T05:04:25;101198.56;;;21.58
75273;BMP280;63869;52.344;16.928;2023-06-22T05:06:52;101191.41;;;21.60
75273;BMP280;63869;52.344;16.928;2023-06-22T05:09:18;101191.19;;;21.64
75273;BMP280;63869;52.344;16.928;2023-06-22T05:11:44;101198.53;;;21.72
75273;BMP280;63869;52.344;16.928;2023-06-22T05:14:09;101202.00;;;21.73
75273;BMP280;63869;52.344;16.928;2023-06-22T05:16:36;101203.00;;;21.75
75273;BMP280;63869;52.344;16.928;2023-06-22T05:19:01;101202.34;;;21.80
75273;BMP280;63869;52.344;16.928;2023-06-22T05:21:28;101210.47;;;21.95
75273;BMP280;63869;52.344;16.928;2023-06-22T05:23:54;101205.25;;;22.12
75273;BMP280;63869;52.344;16.928;2023-06-22T05:26:20;101208.44;;;22.30
75273;BMP280;63869;52.344;16.928;2023-06-22T05:28:46;101202.66;;;22.43
75273;BMP280;63869;52.344;16.928;2023-06-22T05:31:16;101203.19;;;22.47
75273;BMP280;63869;52.344;16.928;2023-06-22T05:33:43;101193.38;;;22.55
75273;BMP280;63869;52.344;16.928;2023-06-22T05:36:08;101184.28;;;22.64
75273;BMP280;63869;52.344;16.928;2023-06-22T05:38:36;101188.34;;;22.74
75273;BMP280;63869;52.344;16.928;2023-06-22T05:43:27;101196.06;;;22.76
75273;BMP280;63869;52.344;16.928;2023-06-22T05:45:53;101200.00;;;22.74
75273;BMP280;63869;52.344;16.928;2023-06-22T05:48:18;101206.47;;;22.77
75273;BMP280;63869;52.344;16.928;2023-06-22T05:50:43;101200.03;;;22.80
75273;BMP280;63869;52.344;16.928;2023-06-22T05:53:09;101204.38;;;22.92
75273;BMP280;63869;52.344;16.928;2023-06-22T05:55:34;101205.47;;;23.00
75273;BMP280;63869;52.344;16.928;2023-06-22T05:58:00;101201.25;;;22.99
75273;BMP280;63869;52.344;16.928;2023-06-22T06:00:25;101204.25;;;23.01
75273;BMP280;63869;52.344;16.928;2023-06-22T06:02:52;101205.47;;;23.00
75273;BMP280;63869;52.344;16.928;2023-06-22T06:05:18;101210.72;;;23.04
75273;BMP280;63869;52.344;16.928;2023-06-22T06:07:45;101199.03;;;23.03
75273;BMP280;63869;52.344;16.928;2023-06-22T06:10:12;101189.63;;;23.04
75273;BMP280;63869;52.344;16.928;2023-06-22T06:12:38;101201.47;;;23.27
75273;BMP280;63869;52.344;16.928;2023-06-22T06:15:05;101192.34;;;23.36
75273;BMP280;63869;52.344;16.928;2023-06-22T06:17:30;101217.00;;;23.47
75273;BMP280;63869;52.344;16.928;2023-06-22T06:19:55;101210.81;;;23.52
75273;BMP280;63869;52.344;16.928;2023-06-22T06:22:21;101216.13;;;23.61
75273;BMP280;63869;52.344;16.928;2023-06-22T06:24:48;101213.88;;;23.65
75273;BMP280;63869;52.344;16.928;2023-06-22T06:27:14;101213.88;;;23.65
75273;BMP280;63869;52.344;16.928;2023-06-22T06:29:39;101213.47;;;23.78
75273;BMP280;63869;52.344;16.928;2023-06-22T06:32:05;101213.25;;;23.87
75273;BMP280;63869;52.344;16.928;2023-06-22T06:34:32;101210.81;;;23.94
75273;BMP280;63869;52.344;16.928;2023-06-22T06:36:58;101208.88;;;24.00
75273;BMP280;63869;52.344;16.928;2023-06-22T06:39:23;101210.84;;;24.05
75273;BMP280;63869;52.344;16.928;2023-06-22T06:41:49;101220.34;;;24.16
75273;BMP280;63869;52.344;16.928;2023-06-22T06:44:14;101219.09;;;24.17
75273;BMP280;63869;52.344;16.928;2023-06-22T06:46:39;101209.13;;;24.08
75273;BMP280;63869;52.344;16.928;2023-06-22T06:49:05;101212.38;;;24.12
75273;BMP280;63869;52.344;16.928;2023-06-22T06:51:30;101222.31;;;24.15
75273;BMP280;63869;52.344;16.928;2023-06-22T06:53:56;101223.56;;;24.20
75273;BMP280;63869;52.344;16.928;2023-06-22T06:56:21;101223.56;;;24.20
75273;BMP280;63869;52.344;16.928;2023-06-22T06:58:49;101232.84;;;24.28
75273;BMP280;63869;52.344;16.928;2023-06-22T07:01:15;101234.81;;;24.33
75273;BMP280;63869;52.344;16.928;2023-06-22T07:03:40;101236.06;;;24.32
75273;BMP280;63869;52.344;16.928;2023-06-22T07:06:05;101234.56;;;24.31
75273;BMP280;63869;52.344;16.928;2023-06-22T07:08:31;101231.59;;;24.29
75273;BMP280;63869;52.344;16.928;2023-06-22T07:10:57;101233.53;;;24.23
75273;BMP280;63869;52.344;16.928;2023-06-22T07:13:22;101222.84;;;24.14
75273;BMP280;63869;52.344;16.928;2023-06-22T07:15:48;101228.03;;;24.12
75273;BMP280;63869;52.344;16.928;2023-06-22T07:18:13;101222.81;;;24.08
75273;BMP280;63869;52.344;16.928;2023-06-22T07:20:38;101232.94;;;24.02
75273;BMP280;63869;52.344;16.928;2023-06-22T07:23:06;101230.47;;;23.98
75273;BMP280;63869;52.344;16.928;2023-06-22T07:25:32;101233.44;;;23.95
75273;BMP280;63869;52.344;16.928;2023-06-22T07:28:03;101234.63;;;23.88
75273;BMP280;63869;52.344;16.928;2023-06-22T07:30:29;101233.13;;;23.87
75273;BMP280;63869;52.344;16.928;2023-06-22T07:32:55;101229.63;;;23.81
75273;BMP280;63869;52.344;16.928;2023-06-22T07:35:20;101226.44;;;23.88
75273;BMP280;63869;52.344;16.928;2023-06-22T07:37:46;101209.09;;;23.97
75273;BMP280;63869;52.344;16.928;2023-06-22T07:40:12;101215.56;;;24.05
75273;BMP280;63869;52.344;16.928;2023-06-22T07:42:38;101221.09;;;24.11
75273;BMP280;63869;52.344;16.928;2023-06-22T07:45:04;101222.84;;;24.14
75273;BMP280;63869;52.344;16.928;2023-06-22T07:47:29;101212.13;;;24.16
75273;BMP280;63869;52.344;16.928;2023-06-22T07:49:58;101223.63;;;24.31
75273;BMP280;63869;52.344;16.928;2023-06-22T07:52:26;101215.22;;;24.40
75273;BMP280;63869;52.344;16.928;2023-06-22T07:54:51;101222.91;;;24.47
75273;BMP280;63869;52.344;16.928;2023-06-22T07:57:19;101222.69;;;24.45
75273;BMP280;63869;52.344;16.928;2023-06-22T07:59:44;101224.69;;;24.50
75273;BMP280;63869;52.344;16.928;2023-06-22T08:02:11;101221.69;;;24.54
75273;BMP280;63869;52.344;16.928;2023-06-22T08:04:36;101226.44;;;24.53
75273;BMP280;63869;52.344;16.928;2023-06-22T08:07:01;101221.22;;;24.55
75273;BMP280;63869;52.344;16.928;2023-06-22T08:09:32;101227.97;;;24.71
75273;BMP280;63869;52.344;16.928;2023-06-22T08:11:58;101223.72;;;24.75
75273;BMP280;63869;52.344;16.928;2023-06-22T08:14:25;101227.47;;;24.89
75273;BMP280;63869;52.344;16.928;2023-06-22T08:16:51;101228.97;;;25.01
75273;BMP280;63869;52.344;16.928;2023-06-22T08:19:18;101227.22;;;25.15
75273;BMP280;63869;52.344;16.928;2023-06-22T08:21:43;101216.28;;;25.26
75273;BMP280;63869;52.344;16.928;2023-06-22T08:24:09;101218.75;;;25.35
75273;BMP280;63869;52.344;16.928;2023-06-22T08:26:34;101217.75;;;25.49
75273;BMP280;63869;52.344;16.928;2023-06-22T08:29:05;101219.97;;;25.56
75273;BMP280;63869;52.344;16.928;2023-06-22T08:31:31;101224.63;;;25.72
75273;BMP280;63869;52.344;16.928;2023-06-22T08:33:58;101213.16;;;25.79
75273;BMP280;63869;52.344;16.928;2023-06-22T08:36:24;101217.31;;;25.97
75273;BMP280;63869;52.344;16.928;2023-06-22T08:38:49;101224.25;;;26.04
75273;BMP280;63869;52.344;16.928;2023-06-22T08:41:16;101221.72;;;26.11
75273;BMP280;63869;52.344;16.928;2023-06-22T08:43:42;101213.47;;;26.17
75273;BMP280;63869;52.344;16.928;2023-06-22T08:46:09;101214.44;;;26.25
75273;BMP280;63869;52.344;16.928;2023-06-22T08:48:34;101212.66;;;26.33
75273;BMP280;63869;52.344;16.928;2023-06-22T08:51:00;101213.06;;;26.43
75273;BMP280;63869;52.344;16.928;2023-06-22T08:53:25;101208.25;;;26.54
75273;BMP280;63869;52.344;16.928;2023-06-22T08:55:50;101203.19;;;26.64
75273;BMP280;63869;52.344;16.928;2023-06-22T08:58:16;101202.38;;;26.74
75273;BMP280;63869;52.344;16.928;2023-06-22T09:00:43;101195.34;;;26.79
75273;BMP280;63869;52.344;16.928;2023-06-22T09:03:10;101184.88;;;26.77
75273;BMP280;63869;52.344;16.928;2023-06-22T09:05:37;101191.28;;;26.86
75273;BMP280;63869;52.344;16.928;2023-06-22T09:08:03;101187.50;;;26.89
75273;BMP280;63869;52.344;16.928;2023-06-22T09:10:29;101180.22;;;26.97
75273;BMP280;63869;52.344;16.928;2023-06-22T09:12:54;101174.94;;;26.99
75273;BMP280;63869;52.344;16.928;2023-06-22T09:15:20;101178.72;;;26.96
75273;BMP280;63869;52.344;16.928;2023-06-22T09:17:45;101182.59;;;26.82
75273;BMP280;63869;52.344;16.928;2023-06-22T09:20:11;101177.47;;;26.67
75273;BMP280;63869;52.344;16.928;2023-06-22T09:22:37;101180.69;;;26.71
75273;BMP280;63869;52.344;16.928;2023-06-22T09:25:02;101174.66;;;26.72
75273;BMP280;63869;52.344;16.928;2023-06-22T09:27:28;101170.66;;;26.73
75273;BMP280;63869;52.344;16.928;2023-06-22T09:29:54;101175.84;;;26.83
75273;BMP280;63869;52.344;16.928;2023-06-22T09:32:19;101171.03;;;26.89
75273;BMP280;63869;52.344;16.928;2023-06-22T09:34:44;101167.03;;;26.90
75273;BMP280;63869;52.344;16.928;2023-06-22T09:37:09;101170.25;;;26.94
75273;BMP280;63869;52.344;16.928;2023-06-22T09:39:35;101162.78;;;26.94
75273;BMP280;63869;52.344;16.928;2023-06-22T09:42:02;101164.91;;;27.01
75273;BMP280;63869;52.344;16.928;2023-06-22T09:44:27;101162.81;;;27.13
75273;BMP280;63869;52.344;16.928;2023-06-22T09:46:52;101163.63;;;27.32
75273;BMP280;63869;52.344;16.928;2023-06-22T09:49:18;101154.19;;;27.46
75273;BMP280;63869;52.344;16.928;2023-06-22T09:51:43;101159.03;;;27.59
75273;BMP280;63869;52.344;16.928;2023-06-22T09:54:08;101162.22;;;27.63
75273;BMP280;63869;52.344;16.928;2023-06-22T09:56:34;101151.19;;;27.68
75273;BMP280;63869;52.344;16.928;2023-06-22T09:58:59;101149.28;;;27.76
75273;BMP280;63869;52.344;16.928;2023-06-22T10:01:24;101157.78;;;27.79
75273;BMP280;63869;52.344;16.928;2023-06-22T10:03:51;101158.28;;;27.77
75273;BMP280;63869;52.344;16.928;2023-06-22T10:06:21;101158.53;;;27.79
75273;BMP280;63869;52.344;16.928;2023-06-22T10:08:47;101164.91;;;27.87
75273;BMP280;63869;52.344;16.928;2023-06-22T10:11:22;101169.75;;;28.00
75273;BMP280;63869;52.344;16.928;2023-06-22T10:13:54;101162.91;;;28.06
75273;BMP280;63869;52.344;16.928;2023-06-22T10:16:29;101160.50;;;28.16
75273;BMP280;63869;52.344;16.928;2023-06-22T10:18:55;101167.31;;;28.28
75273;BMP280;63869;52.344;16.928;2023-06-22T10:21:20;101144.25;;;28.31
75273;BMP280;63869;52.344;16.928;2023-06-22T10:23:45;101144.97;;;28.32
75273;BMP280;63869;52.344;16.928;2023-06-22T10:26:11;101145.84;;;28.40
75273;BMP280;63869;52.344;16.928;2023-06-22T10:28:36;101143.66;;;28.51
75273;BMP280;63869;52.344;16.928;2023-06-22T10:33:41;101154.50;;;28.76
75273;BMP280;63869;52.344;16.928;2023-06-22T10:36:10;101140.28;;;28.71
75273;BMP280;63869;52.344;16.928;2023-06-22T10:38:35;101146.56;;;28.85
75273;BMP280;63869;52.344;16.928;2023-06-22T10:41:02;101147.63;;;28.95
75273;BMP280;63869;52.344;16.928;2023-06-22T10:43:27;101145.59;;;28.96
75273;BMP280;63869;52.344;16.928;2023-06-22T10:45:53;101146.66;;;28.93
75273;BMP280;63869;52.344;16.928;2023-06-22T10:48:18;101146.75;;;29.00
75273;BMP280;63869;52.344;16.928;2023-06-22T10:50:43;101146.44;;;29.04
75273;BMP280;63869;52.344;16.928;2023-06-22T10:53:09;101154.81;;;29.11
75273;BMP280;63869;52.344;16.928;2023-06-22T10:55:34;101147.06;;;29.23
75273;BMP280;63869;52.344;16.928;2023-06-22T10:58:00;101132.84;;;29.32
75273;BMP280;63869;52.344;16.928;2023-06-22T11:00:25;101141.00;;;29.38
75273;BMP280;63869;52.344;16.928;2023-06-22T11:02:51;101142.25;;;29.50
75273;BMP280;63869;52.344;16.928;2023-06-22T11:05:17;101131.50;;;29.59
75273;BMP280;63869;52.344;16.928;2023-06-22T11:07:43;101136.75;;;29.70
75273;BMP280;63869;52.344;16.928;2023-06-22T11:10:12;101123.59;;;29.77
75273;BMP280;63869;52.344;16.928;2023-06-22T11:12:37;101127.16;;;29.85
75273;BMP280;63869;52.344;16.928;2023-06-22T11:15:03;101125.00;;;29.91
75273;BMP280;63869;52.344;16.928;2023-06-22T11:17:28;101119.00;;;30.00
75273;BMP280;63869;52.344;16.928;2023-06-22T11:19:53;101111.19;;;30.11
75273;BMP280;63869;52.344;16.928;2023-06-22T11:22:19;101104.56;;;30.07
75273;BMP280;63869;52.344;16.928;2023-06-22T11:24:46;101110.41;;;30.03
75273;BMP280;63869;52.344;16.928;2023-06-22T11:27:11;101094.66;;;29.91
75273;BMP280;63869;52.344;16.928;2023-06-22T11:29:37;101105.28;;;29.87
75273;BMP280;63869;52.344;16.928;2023-06-22T11:32:06;101096.75;;;29.98
75273;BMP280;63869;52.344;16.928;2023-06-22T11:34:32;101093.72;;;30.09
75273;BMP280;63869;52.344;16.928;2023-06-22T11:36:57;101099.16;;;30.22
75273;BMP280;63869;52.344;16.928;2023-06-22T11:39:22;101108.00;;;30.28
75273;BMP280;63869;52.344;16.928;2023-06-22T11:41:49;101104.16;;;30.31
75273;BMP280;63869;52.344;16.928;2023-06-22T11:44:14;101104.78;;;30.37
75273;BMP280;63869;52.344;16.928;2023-06-22T11:46:39;101100.75;;;30.38
75273;BMP280;63869;52.344;16.928;2023-06-22T11:49:05;101094.47;;;30.38
75273;BMP280;63869;52.344;16.928;2023-06-22T11:51:30;101084.91;;;30.39
75273;BMP280;63869;52.344;16.928;2023-06-22T11:53:57;101090.13;;;30.50
75273;BMP280;63869;52.344;16.928;2023-06-22T11:56:22;101085.41;;;30.58
75273;BMP280;63869;52.344;16.928;2023-06-22T11:58:47;101086.38;;;30.68
75273;BMP280;63869;52.344;16.928;2023-06-22T12:01:14;101084.47;;;30.55
75273;BMP280;63869;52.344;16.928;2023-06-22T12:03:40;101094.97;;;30.64
75273;BMP280;63869;52.344;16.928;2023-06-22T12:06:06;101096.16;;;30.77
75273;BMP280;63869;52.344;16.928;2023-06-22T12:08:31;101097.69;;;30.93
75273;BMP280;63869;52.344;16.928;2023-06-22T12:10:56;101095.59;;;31.14
75273;BMP280;63869;52.344;16.928;2023-06-22T12:13:28;101091.97;;;31.42
75273;BMP280;63869;52.344;16.928;2023-06-22T12:15:53;101094.91;;;31.59
75273;BMP280;63869;52.344;16.928;2023-06-22T12:18:19;101091.63;;;31.68
75273;BMP280;63869;52.344;16.928;2023-06-22T12:20:46;101093.09;;;31.92
75273;BMP280;63869;52.344;16.928;2023-06-22T12:23:12;101083.84;;;32.19
75273;BMP280;63869;52.344;16.928;2023-06-22T12:25:37;101079.16;;;32.45
75273;BMP280;63869;52.344;16.928;2023-06-22T12:28:02;101087.41;;;32.67
75273;BMP280;63869;52.344;16.928;2023-06-22T12:30:32;101077.34;;;32.79
75273;BMP280;63869;52.344;16.928;2023-06-22T12:32:58;101058.78;;;32.97
75273;BMP280;63869;52.344;16.928;2023-06-22T12:35:24;101072.50;;;33.20
75273;BMP280;63869;52.344;16.928;2023-06-22T12:37:50;101071.78;;;33.44
75273;BMP280;63869;52.344;16.928;2023-06-22T12:40:15;101056.91;;;33.74
75273;BMP280;63869;52.344;16.928;2023-06-22T12:42:40;101061.09;;;34.17
75273;BMP280;63869;52.344;16.928;2023-06-22T12:45:07;101053.19;;;34.57
75273;BMP280;63869;52.344;16.928;2023-06-22T12:47:33;101054.03;;;34.77
75273;BMP280;63869;52.344;16.928;2023-06-22T12:49:58;101046.66;;;34.98
75273;BMP280;63869;52.344;16.928;2023-06-22T12:52:24;101049.13;;;35.31
75273;BMP280;63869;52.344;16.928;2023-06-22T12:54:49;101053.41;;;35.41
75273;BMP280;63869;52.344;16.928;2023-06-22T12:57:14;101044.19;;;35.39
75273;BMP280;63869;52.344;16.928;2023-06-22T12:59:40;101048.00;;;35.53
75273;BMP280;63869;52.344;16.928;2023-06-22T13:02:05;101051.97;;;35.88
75273;BMP280;63869;52.344;16.928;2023-06-22T13:04:31;101044.63;;;36.12
75273;BMP280;63869;52.344;16.928;2023-06-22T13:06:56;101038.81;;;36.58
75273;BMP280;63869;52.344;16.928;2023-06-22T13:09:22;101036.63;;;36.87
75273;BMP280;63869;52.344;16.928;2023-06-22T13:11:47;101036.47;;;36.95
75273;BMP280;63869;52.344;16.928;2023-06-22T13:14:12;101041.41;;;36.75
75273;BMP280;63869;52.344;16.928;2023-06-22T13:16:38;101044.69;;;36.62
75273;BMP280;63869;52.344;16.928;2023-06-22T13:19:03;101031.84;;;36.78
75273;BMP280;63869;52.344;16.928;2023-06-22T13:21:30;101030.66;;;37.12
75273;BMP280;63869;52.344;16.928;2023-06-22T13:23:55;101018.00;;;37.32
75273;BMP280;63869;52.344;16.928;2023-06-22T13:26:22;101027.63;;;37.62
75273;BMP280;63869;52.344;16.928;2023-06-22T13:28:47;101018.94;;;37.79
75273;BMP280;63869;52.344;16.928;2023-06-22T13:31:13;101017.25;;;37.74
75273;BMP280;63869;52.344;16.928;2023-06-22T13:33:38;101001.41;;;38.11
75273;BMP280;63869;52.344;16.928;2023-06-22T13:36:06;101011.19;;;38.68
75273;BMP280;63869;52.344;16.928;2023-06-22T13:38:32;101007.34;;;38.98
75273;BMP280;63869;52.344;16.928;2023-06-22T13:40:57;101003.88;;;39.23
75273;BMP280;63869;52.344;16.928;2023-06-22T13:43:24;101001.84;;;39.37
75273;BMP280;63869;52.344;16.928;2023-06-22T13:45:50;101001.81;;;39.49
75273;BMP280;63869;52.344;16.928;2023-06-22T13:48:15;101000.00;;;39.67
75273;BMP280;63869;52.344;16.928;2023-06-22T13:50:40;101010.16;;;39.99